createdAt,value
2022-09-20T00:00:15.211Z,100.00
2022-09-20T00:03:18.969Z,100.00
2022-09-20T00:06:23.701Z,100.00
2022-09-20T00:09:26.159Z,100.00
2022-09-20T00:12:43.402Z,100.00
2022-09-20T00:15:46.190Z,100.00
2022-09-20T00:18:59.340Z,100.00
2022-09-20T00:22:19.934Z,100.00
2022-09-20T00:25:32.143Z,100.00
2022-09-20T00:28:35.488Z,100.00
2022-09-20T00:31:53.302Z,100.00
2022-09-20T00:35:22.110Z,100.00
2022-09-20T00:38:25.028Z,100.00
2022-09-20T00:41:30.168Z,100.00
2022-09-20T00:44:51.392Z,100.00
2022-09-20T00:48:01.002Z,100.00
2022-09-20T00:51:36.417Z,100.00
2022-09-20T00:54:39.128Z,100.00
2022-09-20T00:57:42.890Z,100.00
2022-09-20T01:01:01.848Z,100.00
2022-09-20T01:04:05.065Z,100.00
2022-09-20T01:07:14.200Z,100.00
2022-09-20T01:10:33.771Z,100.00
2022-09-20T01:13:35.817Z,100.00
2022-09-20T01:16:42.234Z,100.00
2022-09-20T01:19:58.216Z,100.00
2022-09-20T01:23:19.072Z,100.00
2022-09-20T01:26:54.083Z,100.00
2022-09-20T01:30:16.864Z,100.00
2022-09-20T01:33:33.946Z,100.00
2022-09-20T01:36:51.153Z,100.00
2022-09-20T01:40:48.217Z,100.00
2022-09-20T01:43:59.701Z,100.00
2022-09-20T01:47:30.768Z,100.00
2022-09-20T01:50:55.579Z,100.00
2022-09-20T01:54:45.081Z,100.00
2022-09-20T02:01:45.935Z,100.00
2022-09-20T02:05:07.654Z,100.00
2022-09-20T02:08:26.416Z,100.00
2022-09-20T02:11:54.269Z,100.00
2022-09-20T02:15:05.057Z,100.00
2022-09-20T02:18:32.318Z,100.00
2022-09-20T02:22:19.914Z,100.00
2022-09-20T02:25:50.882Z,100.00
2022-09-20T02:29:07.287Z,100.00
2022-09-20T02:32:30.050Z,100.00
2022-09-20T02:35:48.920Z,100.00
2022-09-20T02:39:13.695Z,100.00
2022-09-20T02:46:11.327Z,100.00
2022-09-20T02:49:40.849Z,100.00
2022-09-20T02:53:08.757Z,100.00
2022-09-20T02:56:31.983Z,100.00
2022-09-20T03:03:19.810Z,100.00
2022-09-20T03:06:30.624Z,100.00
2022-09-20T03:09:56.342Z,100.00
2022-09-20T03:17:05.372Z,100.00
2022-09-20T03:20:24.760Z,100.00
2022-09-20T03:23:46.258Z,100.00
2022-09-20T03:27:07.192Z,100.00
2022-09-20T03:30:32.875Z,100.00
2022-09-20T03:34:09.485Z,100.00
2022-09-20T03:37:40.202Z,100.00
2022-09-20T03:41:18.654Z,100.00
2022-09-20T03:44:26.137Z,100.00
2022-09-20T03:47:54.362Z,100.00
2022-09-20T03:51:05.737Z,100.00
2022-09-20T03:54:24.565Z,100.00
2022-09-20T03:57:34.911Z,100.00
2022-09-20T04:00:57.023Z,100.00
2022-09-20T04:04:10.719Z,100.00
2022-09-20T04:07:38.923Z,100.00
2022-09-20T04:11:18.615Z,100.00
2022-09-20T04:14:33.449Z,100.00
2022-09-20T04:18:01.936Z,100.00
2022-09-20T04:21:30.934Z,100.00
2022-09-20T04:24:49.074Z,100.00
2022-09-20T04:27:55.734Z,100.00
2022-09-20T04:31:07.234Z,100.00
2022-09-20T04:34:57.956Z,100.00
2022-09-20T04:38:07.603Z,100.00
2022-09-20T04:41:13.051Z,100.00
2022-09-20T04:44:35.910Z,100.00
2022-09-20T04:47:56.956Z,100.00
2022-09-20T04:51:26.753Z,100.00
2022-09-20T04:54:54.530Z,100.00
2022-09-20T04:58:06.311Z,100.00
2022-09-20T05:01:15.609Z,100.00
2022-09-20T05:04:40.964Z,100.00
2022-09-20T05:07:51.628Z,100.00
2022-09-20T05:10:54.124Z,100.00
2022-09-20T05:14:19.592Z,100.00
2022-09-20T05:17:37.458Z,100.00
2022-09-20T05:20:50.562Z,100.00
2022-09-20T05:24:18.380Z,100.00
2022-09-20T05:27:29.362Z,100.00
2022-09-20T05:30:42.981Z,100.00
2022-09-20T05:34:00.271Z,100.00
2022-09-20T05:37:24.105Z,100.00
2022-09-20T05:40:30.602Z,100.00
2022-09-20T05:44:04.337Z,100.00
2022-09-20T05:47:16.963Z,98.97
2022-09-20T05:50:38.149Z,97.71
2022-09-20T05:53:53.425Z,98.77
2022-09-20T05:57:12.815Z,98.88
2022-09-20T06:00:30.681Z,96.08
2022-09-20T06:03:42.028Z,96.35
2022-09-20T06:06:56.087Z,93.94
2022-09-20T06:10:22.570Z,90.52
2022-09-20T06:13:32.479Z,88.80
2022-09-20T06:16:51.737Z,88.48
2022-09-20T06:20:03.443Z,90.15
2022-09-20T06:23:13.276Z,90.49
2022-09-20T06:26:29.986Z,91.48
2022-09-20T06:29:34.963Z,85.38
2022-09-20T06:32:53.877Z,84.56
2022-09-20T06:36:25.214Z,82.37
2022-09-20T06:40:01.090Z,63.82
2022-09-20T06:43:12.199Z,51.55
2022-09-20T06:46:23.790Z,47.13
2022-09-20T06:49:32.901Z,46.24
2022-09-20T06:52:41.671Z,43.20
2022-09-20T06:55:46.649Z,42.38
2022-09-20T06:58:53.823Z,38.39
2022-09-20T07:02:04.466Z,38.79
2022-09-20T07:05:20.837Z,44.65
2022-09-20T07:08:31.955Z,52.93
2022-09-20T07:11:45.900Z,59.61
2022-09-20T07:14:53.944Z,69.23
2022-09-20T07:17:57.266Z,68.04
2022-09-20T07:21:02.391Z,59.06
2022-09-20T07:24:06.734Z,63.11
2022-09-20T07:27:12.030Z,68.87
2022-09-20T07:30:15.506Z,73.33
2022-09-20T07:33:32.598Z,73.68
2022-09-20T07:36:36.124Z,76.48
2022-09-20T07:39:39.630Z,76.08
2022-09-20T07:42:56.136Z,77.60
2022-09-20T07:46:00.593Z,78.29
2022-09-20T07:49:08.308Z,74.71
2022-09-20T07:52:13.147Z,74.35
2022-09-20T07:55:15.960Z,75.89
2022-09-20T07:58:20.936Z,74.33
2022-09-20T08:01:23.867Z,74.27
2022-09-20T08:04:29.766Z,75.74
2022-09-20T08:07:33.201Z,76.71
2022-09-20T08:10:37.577Z,74.47
2022-09-20T08:14:09.465Z,76.09
2022-09-20T08:17:14.306Z,72.09
2022-09-20T08:20:19.012Z,68.68
2022-09-20T08:23:24.331Z,68.95
2022-09-20T08:26:42.591Z,70.05
2022-09-20T08:29:46.309Z,69.89
2022-09-20T08:32:50.117Z,69.83
2022-09-20T08:35:57.669Z,65.40
2022-09-20T08:42:43.756Z,68.22
2022-09-20T08:45:48.190Z,69.06
2022-09-20T08:48:57.543Z,70.88
2022-09-20T08:52:04.343Z,67.73
2022-09-20T08:55:21.841Z,68.59
2022-09-20T08:58:26.058Z,68.01
2022-09-20T09:01:34.269Z,68.45
2022-09-20T09:04:39.028Z,69.16
2022-09-20T09:07:42.295Z,69.64
2022-09-20T09:10:57.567Z,70.37
2022-09-20T09:14:31.463Z,69.41
2022-09-20T09:17:38.658Z,71.75
2022-09-20T09:20:51.284Z,69.98
2022-09-20T09:24:04.989Z,70.90
2022-09-20T09:27:18.661Z,69.79
2022-09-20T09:30:23.225Z,69.79
2022-09-20T09:33:35.094Z,71.05
2022-09-20T09:36:45.411Z,68.60
2022-09-20T09:40:05.886Z,66.63
2022-09-20T10:02:23.555Z,65.91
2022-09-20T10:05:33.450Z,65.33
2022-09-20T10:08:40.440Z,65.52
2022-09-20T10:11:49.756Z,64.75
2022-09-20T10:15:20.534Z,65.00
2022-09-20T10:18:32.476Z,67.22
2022-09-20T10:21:39.256Z,66.53
2022-09-20T10:24:42.308Z,65.47
2022-09-20T10:28:09.261Z,64.15
2022-09-20T10:31:32.535Z,66.36
2022-09-20T10:34:49.367Z,64.69
2022-09-20T10:38:02.061Z,65.50
2022-09-20T10:41:34.097Z,61.97
2022-09-20T10:45:02.637Z,60.73
2022-09-20T10:48:09.673Z,59.12
2022-09-20T10:51:31.658Z,59.32
2022-09-20T10:54:49.408Z,58.60
2022-09-20T10:58:07.223Z,58.58
2022-09-20T11:01:18.621Z,58.93
2022-09-20T11:04:36.162Z,60.71
2022-09-20T11:07:52.137Z,60.98
2022-09-20T11:11:13.182Z,60.78
2022-09-20T11:14:19.875Z,60.61
2022-09-20T11:17:22.591Z,59.91
2022-09-20T11:20:33.694Z,58.91
2022-09-20T11:23:37.894Z,59.15
2022-09-20T11:26:41.210Z,57.17
2022-09-20T13:22:19.213Z,59.30
2022-09-20T13:25:24.555Z,61.48
2022-09-20T13:28:30.908Z,59.46
2022-09-20T13:31:34.977Z,58.38
2022-09-20T13:34:39.863Z,58.55
2022-09-20T13:37:47.903Z,59.16
2022-09-20T13:41:04.199Z,60.17
2022-09-20T13:44:17.838Z,60.51
2022-09-20T13:50:54.417Z,60.91
2022-09-20T13:54:29.047Z,60.36
2022-09-20T13:57:37.571Z,58.62
2022-09-20T14:00:45.891Z,59.02
2022-09-20T14:03:57.588Z,58.84
2022-09-20T14:07:03.960Z,56.09
2022-09-20T14:10:27.240Z,56.14
2022-09-20T14:13:34.388Z,54.61
2022-09-20T14:16:40.844Z,53.53
2022-09-20T14:19:53.593Z,52.70
2022-09-20T14:22:59.208Z,53.63
2022-09-20T14:26:20.856Z,54.11
2022-09-20T14:29:37.697Z,54.82
2022-09-20T14:33:02.621Z,55.72
2022-09-20T14:36:05.855Z,56.45
2022-09-20T14:39:14.640Z,57.97
2022-09-20T14:42:27.408Z,56.20
2022-09-20T14:45:32.809Z,56.53
2022-09-20T14:48:43.353Z,56.62
2022-09-20T14:51:49.419Z,54.69
2022-09-20T14:55:06.354Z,55.98
2022-09-20T14:58:15.586Z,56.00
2022-09-20T15:01:28.950Z,56.45
2022-09-20T15:04:34.356Z,55.91
2022-09-20T15:07:38.273Z,56.84
2022-09-20T15:10:43.313Z,57.06
2022-09-20T15:13:49.764Z,58.31
2022-09-20T15:16:53.700Z,58.81
2022-09-20T15:19:57.820Z,60.59
2022-09-20T15:23:00.792Z,61.59
2022-09-20T15:26:03.903Z,64.14
2022-09-20T15:29:08.248Z,66.49
2022-09-20T15:32:12.447Z,67.07
2022-09-20T15:35:15.016Z,69.37
2022-09-20T15:38:23.845Z,71.60
2022-09-20T15:41:30.507Z,73.87
2022-09-20T15:44:36.175Z,74.41
2022-09-20T15:47:45.323Z,75.07
2022-09-20T15:51:13.923Z,76.12
2022-09-20T15:54:21.103Z,76.30
2022-09-20T15:57:23.979Z,77.60
2022-09-20T16:00:30.246Z,78.60
2022-09-20T16:03:33.311Z,80.11
2022-09-20T16:06:36.071Z,81.95
2022-09-20T16:09:39.423Z,87.46
2022-09-20T16:12:43.032Z,92.86
2022-09-20T16:15:59.949Z,98.46
2022-09-20T16:19:20.642Z,100.00
2022-09-20T16:22:29.897Z,100.00
2022-09-20T16:25:52.899Z,100.00
2022-09-20T16:29:08.996Z,100.00
2022-09-20T16:32:17.582Z,100.00
2022-09-20T16:35:32.133Z,100.00
2022-09-20T16:38:50.325Z,100.00
2022-09-20T17:13:58.343Z,100.00
2022-09-20T17:17:09.113Z,100.00
2022-09-20T17:20:11.966Z,100.00
2022-09-20T17:23:15.415Z,100.00
2022-09-20T17:26:20.889Z,100.00
2022-09-20T17:29:23.914Z,100.00
2022-09-20T17:32:26.698Z,100.00
2022-09-20T17:35:30.098Z,100.00
2022-09-20T17:38:34.432Z,100.00
2022-09-20T17:41:37.838Z,100.00
2022-09-20T17:44:42.655Z,100.00
2022-09-20T17:47:47.621Z,100.00
2022-09-20T17:51:12.504Z,100.00
2022-09-20T17:54:16.682Z,100.00
2022-09-20T17:57:19.397Z,100.00
2022-09-20T18:00:24.390Z,100.00
2022-09-20T18:03:27.699Z,100.00
2022-09-20T18:06:32.879Z,100.00
2022-09-20T18:09:35.460Z,100.00
2022-09-20T18:12:45.318Z,100.00
2022-09-20T18:15:48.900Z,100.00
2022-09-20T18:18:56.768Z,100.00
2022-09-20T18:22:00.204Z,100.00
2022-09-20T18:25:05.774Z,100.00
2022-09-20T18:28:10.715Z,100.00
2022-09-20T18:31:18.753Z,100.00
2022-09-20T18:34:25.910Z,100.00
2022-09-20T18:37:28.943Z,100.00
2022-09-20T18:40:34.715Z,100.00
2022-09-20T18:43:38.427Z,100.00
2022-09-20T18:46:47.950Z,100.00
2022-09-20T18:50:00.989Z,100.00
2022-09-20T18:53:07.634Z,100.00
2022-09-20T18:56:32.540Z,100.00
2022-09-20T18:59:38.225Z,100.00
2022-09-20T19:03:00.870Z,99.87
2022-09-20T19:06:11.494Z,98.64
2022-09-20T19:09:42.097Z,100.00
2022-09-20T19:12:57.205Z,98.43
2022-09-20T19:16:23.503Z,99.49
2022-09-20T19:19:49.346Z,100.00
2022-09-20T19:23:06.797Z,98.75
2022-09-20T19:26:33.165Z,98.79
2022-09-20T19:29:42.897Z,98.07
2022-09-20T19:32:45.598Z,97.41
2022-09-20T19:35:57.367Z,97.29
2022-09-20T19:39:09.993Z,98.17
2022-09-20T19:42:35.755Z,96.88
2022-09-20T19:45:49.246Z,97.03
2022-09-20T19:49:14.972Z,96.68
2022-09-20T19:52:20.824Z,97.18
2022-09-20T19:55:24.332Z,97.93
2022-09-20T19:58:29.692Z,98.66
2022-09-20T20:01:33.492Z,98.31
2022-09-20T20:04:36.569Z,99.33
2022-09-20T20:07:50.221Z,100.00
2022-09-20T20:11:15.165Z,99.74
2022-09-20T20:14:33.618Z,100.00
2022-09-20T20:17:47.597Z,100.00
2022-09-20T20:20:53.361Z,100.00
2022-09-20T20:23:57.093Z,100.00
2022-09-20T20:27:09.806Z,100.00
2022-09-20T20:30:18.333Z,100.00
2022-09-20T20:33:24.550Z,100.00
2022-09-20T20:36:33.428Z,100.00
2022-09-20T20:39:40.136Z,100.00
2022-09-20T20:42:44.010Z,100.00
2022-09-20T20:45:57.989Z,100.00
2022-09-20T20:49:00.339Z,100.00
2022-09-20T20:52:16.679Z,100.00
2022-09-20T20:55:20.069Z,100.00
2022-09-20T20:58:23.797Z,100.00
2022-09-20T21:01:33.615Z,100.00
2022-09-20T21:04:40.290Z,100.00
2022-09-20T21:07:42.645Z,100.00
2022-09-20T21:10:47.800Z,100.00
2022-09-20T21:13:53.362Z,100.00
2022-09-20T21:16:57.048Z,100.00
2022-09-20T21:20:05.174Z,100.00
2022-09-20T21:23:10.105Z,100.00
2022-09-20T21:26:15.664Z,100.00
2022-09-20T21:29:18.495Z,100.00
2022-09-20T21:32:27.139Z,100.00
2022-09-20T21:35:35.213Z,100.00
2022-09-20T21:38:43.498Z,100.00
2022-09-20T21:41:47.940Z,100.00
2022-09-20T21:44:55.124Z,100.00
2022-09-20T21:48:05.768Z,100.00
2022-09-20T21:51:13.289Z,100.00
2022-09-20T21:54:21.076Z,100.00
2022-09-20T21:57:26.207Z,100.00
2022-09-20T22:00:28.386Z,100.00
2022-09-20T22:03:34.307Z,100.00
2022-09-20T22:06:38.367Z,100.00
2022-09-20T22:09:41.150Z,100.00
2022-09-20T22:12:44.244Z,100.00
2022-09-20T22:15:48.610Z,100.00
2022-09-20T22:18:53.288Z,100.00
2022-09-20T22:21:55.723Z,100.00
2022-09-20T22:25:00.205Z,100.00
2022-09-20T22:28:02.499Z,100.00
2022-09-20T22:31:06.130Z,100.00
2022-09-20T22:34:09.167Z,100.00
2022-09-20T22:37:12.246Z,100.00
2022-09-20T22:40:17.959Z,100.00
2022-09-20T22:43:20.169Z,100.00
2022-09-20T22:46:33.630Z,100.00
2022-09-20T22:49:40.103Z,100.00
2022-09-20T22:52:46.060Z,100.00
2022-09-20T22:55:52.110Z,100.00
2022-09-20T22:58:56.755Z,100.00
2022-09-20T23:02:00.854Z,100.00
2022-09-20T23:05:03.065Z,100.00
2022-09-20T23:08:05.990Z,100.00
2022-09-20T23:11:10.801Z,100.00
2022-09-20T23:14:25.022Z,100.00
2022-09-20T23:17:30.885Z,100.00
2022-09-20T23:20:35.187Z,100.00
2022-09-20T23:23:46.590Z,100.00
2022-09-20T23:26:48.470Z,100.00
2022-09-20T23:29:57.182Z,100.00
2022-09-20T23:33:03.562Z,100.00
2022-09-20T23:36:13.300Z,100.00
2022-09-20T23:39:15.839Z,100.00
2022-09-20T23:42:18.548Z,100.00
2022-09-20T23:45:31.709Z,100.00
2022-09-20T23:48:36.372Z,100.00
2022-09-20T23:51:38.753Z,100.00
2022-09-20T23:54:42.376Z,100.00
2022-09-20T23:57:53.339Z,100.00
